Mount Hood Parkdale, OR (97041)

11:30 PM PDT on October 01, 2014 (GMT -0700)
Parkdale West | Change Station
CLOSE
Current Station
Personal Weather Station
Location: Mt Hood Parkdale, OR
Elevation: 1473 ft
Nearby Weather Stations

Elev 1473 ft 45.54 °N, 121.62 °W | Updated 5 seconds ago

Clear
Clear
42.9 °F
Feels Like 43 °F
N
0.0
Wind Variable Wind from WSW
Gusts 0.0 mph

Today
High -- | Low -- °F
--% Chance of Precip.
Yesterday
High -- | Low -- °F
Precip. -- in
7:04 AM 6:46 PM
First Quarter, 55% visible
Pressure 30.13 in
Visibility 10.0 miles
Clouds Clear
Windchill 43 °F
Dew Point 40 °F
Humidity 90%
Rainfall 0.00 in
Snow Depth 0 in , 0 in , 0 in
UV 0 out of 12
Pollen .90 out of 12
Air Quality Not available.
Flu Activity Not available.
METAR KDLS 020553Z AUTO 22006KT 10SM CLR 15/05 A3013 RMK AO2 SLP202 T01500050 10200 20139 53004

More Conditions Fewer Conditions

Pressure 30.13 in
Visibility 10.0 miles
Clouds Clear
Windchill 43 °F
Dew Point 40 °F
Humidity 90%
Rainfall 0.00 in
Snow Depth 0 in , 0 in , 0 in
UV 0 out of 12
Pollen .90 out of 12
Air Quality Not available.
Flu Activity Not available.
METAR KDLS 020553Z AUTO 22006KT 10SM CLR 15/05 A3013 RMK AO2 SLP202 T01500050 10200 20139 53004

More Conditions Fewer Conditions

10-Day Weather Forecast

Almanac

Astronomy

Oct. 01, 2014 Rise Set
Actual Time 7:04 AM PDT 6:46 PM PDT
Civil Twilight 6:35 AM PDT 7:15 PM PDT
Nautical Twilight 6:00 AM PDT 7:50 PM PDT
Astronomical Twilight 5:25 AM PDT 8:24 PM PDT
Moon 2:22 PM PDT (10/1) No Moon Set
Length of Visible Light 12h 40m
Length of Day
11h 41m
Tomorrow will be 3m 10s shorter.
First Quarter, 55% of the Moon is Illuminated
Oct 2
First Quarter
Oct 8
Full
Oct 15
Last Quarter
Oct 23
New
Oct 30
First Quarter

Community

WunderPhotos

Upload Photos

1,758,198 photos uploaded!

WunderBlogs® & News

Nearby

Snow Depth

Station Depth Elevation
North Fork 0 in 3120 ft
Chemult Alternate 0 in 4760 ft
High Ridge 0 in 4980 ft
Holland Meadows 0 in 4900 ft
Daly Lake 0 in 3600 ft

Earthquake Activity

City Distance Mag. Time & Date
No recent earthquake activity has been reported nearby.
Minimum magnitude displayed is 2.5.

Coastal Water Temperatures

Place Temperature
No Stations Reporting

Nearby Weather Stations